createdAt,value
2022-08-24T00:03:00.480Z,98674.78
2022-08-24T00:06:03.859Z,98675.13
2022-08-24T00:09:07.851Z,98678.25
2022-08-24T00:12:10.565Z,98674.34
2022-08-24T00:15:16.636Z,98679.41
2022-08-24T00:18:19.761Z,98687.94
2022-08-24T00:21:22.772Z,98677.97
2022-08-24T00:24:27.480Z,98680.19
2022-08-24T00:27:30.228Z,98672.22
2022-08-24T00:30:33.796Z,98683.66
2022-08-24T00:33:36.691Z,98679.94
2022-08-24T00:36:39.218Z,98679.94
2022-08-24T00:39:43.595Z,98678.03
2022-08-24T00:42:46.326Z,98674.41
2022-08-24T00:45:51.456Z,98670.75
2022-08-24T00:49:00.636Z,98672.28
2022-08-24T00:52:07.339Z,98679.78
2022-08-24T00:55:15.645Z,98680.44
2022-08-24T00:58:22.175Z,98673.03
2022-08-24T01:01:24.787Z,98678.13
2022-08-24T01:04:32.347Z,98681.56
2022-08-24T01:07:39.417Z,98677.75
2022-08-24T01:10:45.392Z,98682.34
2022-08-24T01:13:50.241Z,98678.38
2022-08-24T01:17:10.497Z,98683.47
2022-08-24T01:20:14.357Z,98678.31
2022-08-24T01:23:30.185Z,98679.91
2022-08-24T01:26:42.355Z,98679.09
2022-08-24T01:29:46.128Z,98684.50
2022-08-24T01:32:57.141Z,98687.16
2022-08-24T01:36:02.905Z,98686.56
2022-08-24T01:39:11.614Z,98689.13
2022-08-24T01:42:14.754Z,98693.69
2022-08-24T01:45:20.144Z,98691.31
2022-08-24T01:48:23.366Z,98696.84
2022-08-24T01:51:25.893Z,98697.91
2022-08-24T01:54:31.406Z,98699.75
2022-08-24T01:57:33.995Z,98701.31
2022-08-24T02:00:37.610Z,98700.44
2022-08-24T02:03:40.355Z,98700.00
2022-08-24T02:06:44.556Z,98693.47
2022-08-24T02:09:48.661Z,98702.78
2022-08-24T02:12:58.000Z,98705.34
2022-08-24T02:16:01.077Z,98711.59
2022-08-24T02:19:03.975Z,98701.22
2022-08-24T02:22:07.331Z,98705.81
2022-08-24T02:25:11.539Z,98709.28
2022-08-24T02:28:17.203Z,98703.09
2022-08-24T02:31:19.832Z,98710.94
2022-08-24T02:34:22.560Z,98714.25
2022-08-24T02:37:25.351Z,98713.88
2022-08-24T02:40:29.953Z,98714.78
2022-08-24T02:43:32.806Z,98713.06
2022-08-24T02:46:41.319Z,98702.44
2022-08-24T02:49:43.977Z,98704.31
2022-08-24T02:52:46.913Z,98703.09
2022-08-24T02:55:51.411Z,98708.09
2022-08-24T02:58:54.486Z,98708.31
2022-08-24T03:01:57.811Z,98710.09
2022-08-24T03:05:00.413Z,98709.94
2022-08-24T03:08:03.183Z,98702.47
2022-08-24T03:11:08.341Z,98699.00
2022-08-24T03:14:11.629Z,98699.91
2022-08-24T03:17:14.207Z,98698.59
2022-08-24T03:20:19.257Z,98692.47
2022-08-24T03:23:23.585Z,98696.13
2022-08-24T03:26:27.474Z,98703.59
2022-08-24T03:29:33.750Z,98694.16
2022-08-24T03:32:36.603Z,98697.72
2022-08-24T03:35:39.709Z,98687.16
2022-08-24T03:38:42.758Z,98696.56
2022-08-24T03:41:46.821Z,98689.81
2022-08-24T03:44:49.513Z,98697.56
2022-08-24T03:47:52.507Z,98694.28
2022-08-24T03:50:55.276Z,98693.59
2022-08-24T03:53:59.684Z,98696.63
2022-08-24T03:57:03.794Z,98705.84
2022-08-24T04:00:09.902Z,98707.47
2022-08-24T04:03:13.374Z,98697.94
2022-08-24T04:06:17.818Z,98702.66
2022-08-24T04:09:21.080Z,98701.97
2022-08-24T04:12:25.129Z,98708.19
2022-08-24T04:15:28.159Z,98707.38
2022-08-24T04:18:30.761Z,98702.75
2022-08-24T04:21:35.686Z,98701.97
2022-08-24T04:24:38.416Z,98714.84
2022-08-24T04:27:42.604Z,98718.41
2022-08-24T04:30:47.608Z,98723.22
2022-08-24T04:33:54.044Z,98713.63
2022-08-24T04:36:56.813Z,98721.53
2022-08-24T04:39:59.946Z,98728.25
2022-08-24T04:43:04.104Z,98728.09
2022-08-24T04:46:08.500Z,98727.91
2022-08-24T04:49:11.653Z,98728.94
2022-08-24T04:52:14.511Z,98738.44
2022-08-24T04:55:17.603Z,98734.25
2022-08-24T04:58:21.845Z,98733.63
2022-08-24T05:01:26.454Z,98740.81
2022-08-24T05:04:29.122Z,98730.72
2022-08-24T05:07:33.993Z,98743.25
2022-08-24T05:10:38.831Z,98746.16
2022-08-24T05:13:42.830Z,98749.72
2022-08-24T05:16:45.751Z,98754.25
2022-08-24T05:19:56.297Z,98741.56
2022-08-24T05:23:02.495Z,98748.09
2022-08-24T05:26:08.713Z,98751.03
2022-08-24T05:29:12.760Z,98748.47
2022-08-24T05:32:18.100Z,98747.13
2022-08-24T05:35:21.738Z,98755.38
2022-08-24T05:38:25.097Z,98751.69
2022-08-24T05:41:27.539Z,98747.56
2022-08-24T05:44:31.869Z,98748.63
2022-08-24T05:47:35.511Z,98751.97
2022-08-24T05:50:38.116Z,98750.09
2022-08-24T05:53:41.353Z,98754.63
2022-08-24T05:56:44.697Z,98762.19
2022-08-24T05:59:49.036Z,98763.09
2022-08-24T06:02:52.827Z,98771.28
2022-08-24T06:05:56.041Z,98770.72
2022-08-24T06:09:01.698Z,98778.00
2022-08-24T06:12:05.607Z,98776.97
2022-08-24T06:15:11.504Z,98783.44
2022-08-24T06:18:14.235Z,98779.56
2022-08-24T06:21:22.022Z,98781.53
2022-08-24T06:24:45.250Z,98777.63
2022-08-24T06:27:47.027Z,98767.78
2022-08-24T06:30:51.029Z,98779.31
2022-08-24T06:33:53.910Z,98775.13
2022-08-24T06:36:56.601Z,98775.69
2022-08-24T06:40:00.083Z,98775.78
2022-08-24T06:43:03.335Z,98779.06
2022-08-24T06:46:08.470Z,98781.59
2022-08-24T06:49:11.892Z,98781.72
2022-08-24T06:52:14.494Z,98784.19
2022-08-24T06:55:17.226Z,98779.56
2022-08-24T06:58:20.457Z,98781.22
2022-08-24T07:01:26.075Z,98780.06
2022-08-24T07:04:29.214Z,98796.41
2022-08-24T07:07:31.638Z,98788.56
2022-08-24T07:10:34.744Z,98792.19
2022-08-24T07:13:37.450Z,98792.19
2022-08-24T07:16:41.535Z,98799.03
2022-08-24T07:19:44.230Z,98797.41
2022-08-24T07:22:46.983Z,98797.41
2022-08-24T07:25:54.160Z,98806.94
2022-08-24T07:29:05.079Z,98800.56
2022-08-24T07:32:10.251Z,98800.09
2022-08-24T07:35:13.089Z,98802.94
2022-08-24T07:38:15.856Z,98804.44
2022-08-24T07:41:43.415Z,98809.97
2022-08-24T07:44:41.414Z,98803.16
2022-08-24T07:47:54.601Z,98807.50
2022-08-24T07:50:59.602Z,98808.97
2022-08-24T07:54:03.793Z,98819.25
2022-08-24T07:57:09.941Z,98809.63
2022-08-24T08:00:15.254Z,98810.81
2022-08-24T08:03:19.412Z,98817.88
2022-08-24T08:06:22.170Z,98816.16
2022-08-24T08:09:24.879Z,98820.88
2022-08-24T08:12:27.564Z,98824.41
2022-08-24T08:15:30.364Z,98822.72
2022-08-24T08:18:34.550Z,98818.19
2022-08-24T08:22:00.537Z,98821.72
2022-08-24T08:25:03.864Z,98820.41
2022-08-24T08:28:18.630Z,98819.13
2022-08-24T08:31:29.135Z,98814.19
2022-08-24T08:34:38.258Z,98800.16
2022-08-24T08:37:41.427Z,98812.88
2022-08-24T08:40:59.632Z,98811.28
2022-08-24T08:44:04.806Z,98799.41
2022-08-24T08:47:18.606Z,98797.00
2022-08-24T08:50:26.354Z,98803.41
2022-08-24T08:54:11.087Z,98790.50
2022-08-24T08:57:29.512Z,98788.84
2022-08-24T09:00:44.619Z,98790.06
2022-08-24T09:04:09.588Z,98791.56
2022-08-24T09:07:17.736Z,98791.56
2022-08-24T09:10:31.969Z,98798.19
2022-08-24T09:13:46.326Z,98789.41
2022-08-24T09:17:00.897Z,98792.78
2022-08-24T09:20:32.839Z,98787.69
2022-08-24T09:23:47.675Z,98789.03
2022-08-24T09:26:57.987Z,98785.72
2022-08-24T09:30:09.201Z,98780.75
2022-08-24T09:33:19.937Z,98784.34
2022-08-24T09:36:31.413Z,98786.28
2022-08-24T09:39:50.136Z,98774.75
2022-08-24T09:43:06.918Z,98771.66
2022-08-24T09:46:28.111Z,98784.22
2022-08-24T09:50:06.981Z,98771.09
2022-08-24T09:53:26.554Z,98777.34
2022-08-24T09:56:39.268Z,98776.19
2022-08-24T10:00:10.025Z,98774.56
2022-08-24T10:03:26.276Z,98778.44
2022-08-24T10:06:46.611Z,98773.59
2022-08-24T10:09:57.512Z,98768.66
2022-08-24T10:13:10.542Z,98767.94
2022-08-24T10:16:22.687Z,98765.16
2022-08-24T10:19:40.048Z,98765.28
2022-08-24T10:23:04.795Z,98764.16
2022-08-24T10:26:14.198Z,98755.63
2022-08-24T10:29:32.777Z,98755.75
2022-08-24T10:32:47.611Z,98753.09
2022-08-24T10:36:09.628Z,98745.66
2022-08-24T10:39:43.351Z,98748.19
2022-08-24T10:43:27.198Z,98740.78
2022-08-24T10:46:38.246Z,98730.75
2022-08-24T10:50:31.144Z,98728.97
2022-08-24T10:53:34.764Z,98731.97
2022-08-24T10:56:42.483Z,98726.09
2022-08-24T10:59:52.332Z,98729.16
2022-08-24T11:03:09.274Z,98721.16
2022-08-24T11:06:16.733Z,98731.97
2022-08-24T11:09:20.028Z,98726.91
2022-08-24T11:12:27.191Z,98727.09
2022-08-24T11:15:30.705Z,98724.41
2022-08-24T11:18:50.491Z,98733.03
2022-08-24T11:21:55.134Z,98719.78
2022-08-24T11:25:00.418Z,98721.94
2022-08-24T11:28:06.158Z,98720.53
2022-08-24T11:31:13.362Z,98710.31
2022-08-24T11:34:21.848Z,98703.94
2022-08-24T11:37:28.078Z,98703.09
2022-08-24T11:40:37.576Z,98697.28
2022-08-24T11:43:54.159Z,98698.00
2022-08-24T11:47:02.716Z,98685.34
2022-08-24T11:50:15.509Z,98694.25
2022-08-24T11:53:26.046Z,98693.00
2022-08-24T11:56:33.381Z,98704.06
2022-08-24T11:59:45.398Z,98694.47
2022-08-24T12:02:56.563Z,98694.81
2022-08-24T12:06:06.752Z,98691.31
2022-08-24T12:09:17.438Z,98695.91
2022-08-24T12:12:23.912Z,98693.03
2022-08-24T12:15:38.808Z,98691.91
2022-08-24T12:18:56.984Z,98685.94
2022-08-24T12:22:04.090Z,98680.63
2022-08-24T12:25:30.797Z,98690.72
2022-08-24T12:28:38.506Z,98684.56
2022-08-24T12:31:45.244Z,98684.22
2022-08-24T12:34:57.972Z,98684.06
2022-08-24T12:38:05.571Z,98690.00
2022-08-24T12:41:17.559Z,98684.25
2022-08-24T12:44:25.790Z,98688.16
2022-08-24T12:47:36.742Z,98684.19
2022-08-24T12:50:46.516Z,98673.94
2022-08-24T12:54:06.919Z,98680.53
2022-08-24T12:57:28.432Z,98685.50
2022-08-24T13:00:37.311Z,98676.09
2022-08-24T13:03:42.070Z,98678.31
2022-08-24T13:06:48.556Z,98683.38
2022-08-24T13:10:11.963Z,98681.28
2022-08-24T13:13:21.170Z,98677.94
2022-08-24T13:16:47.609Z,98661.75
2022-08-24T13:20:18.558Z,98658.34
2022-08-24T13:23:22.706Z,98662.03
2022-08-24T13:26:27.722Z,98648.44
2022-08-24T13:29:34.952Z,98640.25
2022-08-24T13:32:40.818Z,98637.06
2022-08-24T13:35:57.323Z,98638.84
2022-08-24T13:39:08.112Z,98642.22
2022-08-24T13:42:29.910Z,98640.03
2022-08-24T13:45:34.365Z,98627.16
2022-08-24T13:48:48.319Z,98624.38
2022-08-24T13:51:54.364Z,98622.34
2022-08-24T13:55:23.271Z,98632.09
2022-08-24T13:58:36.366Z,98630.75
2022-08-24T14:01:51.118Z,98618.72
2022-08-24T14:04:56.690Z,98624.47
2022-08-24T14:08:11.066Z,98611.91
2022-08-24T14:11:19.194Z,98614.91
2022-08-24T14:14:34.727Z,98611.22
2022-08-24T14:17:55.389Z,98614.03
2022-08-24T14:21:06.797Z,98609.44
2022-08-24T14:24:12.712Z,98611.66
2022-08-24T14:27:38.607Z,98605.63
2022-08-24T14:30:46.807Z,98602.91
2022-08-24T14:34:01.724Z,98601.25
2022-08-24T14:37:06.126Z,98596.38
2022-08-24T14:40:17.429Z,98589.53
2022-08-24T14:43:30.088Z,98596.94
2022-08-24T14:46:40.677Z,98588.25
2022-08-24T14:49:48.301Z,98597.38
2022-08-24T14:53:01.451Z,98592.44
2022-08-24T14:56:11.824Z,98587.03
2022-08-24T14:59:22.032Z,98582.16
2022-08-24T15:03:19.531Z,98578.03
2022-08-24T15:06:27.860Z,98581.34
2022-08-24T15:09:35.586Z,98573.56
2022-08-24T15:12:39.765Z,98577.31
2022-08-24T15:15:46.323Z,98572.19
2022-08-24T15:18:55.501Z,98578.13
2022-08-24T15:22:03.789Z,98575.03
2022-08-24T15:25:12.485Z,98553.47
2022-08-24T15:28:23.929Z,98563.56
2022-08-24T15:31:27.544Z,98575.41
2022-08-24T15:34:42.799Z,98563.88
2022-08-24T15:37:45.671Z,98569.44
2022-08-24T15:40:49.129Z,98573.72
2022-08-24T15:43:59.740Z,98559.63
2022-08-24T15:47:05.717Z,98561.44
2022-08-24T15:50:22.210Z,98557.75
2022-08-24T15:53:34.603Z,98557.59
2022-08-24T15:56:42.705Z,98560.72
2022-08-24T15:59:48.535Z,98574.31
2022-08-24T16:02:50.274Z,98562.09
2022-08-24T16:05:56.313Z,98566.94
2022-08-24T16:09:01.942Z,98559.56
2022-08-24T16:12:07.788Z,98566.16
2022-08-24T16:15:16.950Z,98563.19
2022-08-24T16:18:21.420Z,98556.28
2022-08-24T16:21:34.411Z,98560.19
2022-08-24T16:24:39.215Z,98548.25
2022-08-24T16:27:58.083Z,98551.53
2022-08-24T16:31:07.758Z,98553.34
2022-08-24T16:34:19.431Z,98555.72
2022-08-24T16:37:25.155Z,98553.38
2022-08-24T16:40:28.134Z,98561.25
2022-08-24T16:43:31.678Z,98553.00
2022-08-24T16:46:34.314Z,98544.91
2022-08-24T16:49:39.230Z,98553.03
2022-08-24T16:52:43.296Z,98554.06
2022-08-24T16:55:47.982Z,98564.94
2022-08-24T16:58:50.900Z,98571.81
2022-08-24T17:01:53.812Z,98566.59
2022-08-24T17:04:56.827Z,98569.25
2022-08-24T17:08:01.787Z,98575.69
2022-08-24T17:11:04.856Z,98565.34
2022-08-24T17:14:07.959Z,98570.84
2022-08-24T17:17:14.229Z,98570.72
2022-08-24T17:20:16.987Z,98577.06
2022-08-24T17:23:21.471Z,98587.28
2022-08-24T17:26:24.369Z,98588.69
2022-08-24T17:29:27.295Z,98582.06
2022-08-24T17:32:30.277Z,98584.59
2022-08-24T17:35:33.237Z,98586.19
2022-08-24T17:38:42.810Z,98588.94
2022-08-24T17:41:45.459Z,98592.78
2022-08-24T17:44:48.446Z,98606.81
2022-08-24T17:47:52.466Z,98604.66
2022-08-24T17:50:55.539Z,98602.41
2022-08-24T17:53:59.555Z,98609.00
2022-08-24T17:57:02.537Z,98612.22
2022-08-24T18:00:06.068Z,98615.56
2022-08-24T18:03:12.305Z,98619.53
2022-08-24T18:06:18.110Z,98615.06
2022-08-24T18:09:29.484Z,98617.09
2022-08-24T18:12:32.862Z,98612.91
2022-08-24T18:15:36.377Z,98620.53
2022-08-24T18:18:39.745Z,98614.59
2022-08-24T18:21:42.725Z,98622.91
2022-08-24T18:24:46.850Z,98632.78
2022-08-24T18:27:52.603Z,98627.41
2022-08-24T18:30:55.286Z,98625.31
2022-08-24T18:33:57.946Z,98623.69
2022-08-24T18:37:01.259Z,98636.31
2022-08-24T18:40:06.509Z,98631.81
2022-08-24T18:43:09.936Z,98637.69
2022-08-24T18:46:13.153Z,98639.47
2022-08-24T18:49:15.887Z,98645.25
2022-08-24T18:52:19.401Z,98643.78
2022-08-24T18:55:24.366Z,98659.53
2022-08-24T18:58:27.031Z,98655.72
2022-08-24T19:01:31.822Z,98657.13
2022-08-24T19:04:35.353Z,98659.28
2022-08-24T19:07:41.056Z,98654.31
2022-08-24T19:10:45.825Z,98659.59
2022-08-24T19:13:48.510Z,98665.34
2022-08-24T19:16:51.145Z,98666.22
2022-08-24T19:19:55.396Z,98663.44
2022-08-24T19:23:01.606Z,98670.66
2022-08-24T19:26:06.178Z,98674.69
2022-08-24T19:29:08.949Z,98667.88
2022-08-24T19:32:13.893Z,98668.31
2022-08-24T19:35:25.115Z,98670.75
2022-08-24T19:38:28.021Z,98677.59
2022-08-24T19:41:36.897Z,98674.44
2022-08-24T19:44:57.876Z,98670.88
2022-08-24T19:48:00.674Z,98673.31
2022-08-24T19:51:03.520Z,98664.63
2022-08-24T19:54:07.009Z,98690.59
2022-08-24T19:57:31.640Z,98679.03
2022-08-24T20:00:39.182Z,98682.69
2022-08-24T20:03:42.273Z,98681.91
2022-08-24T20:06:44.934Z,98689.44
2022-08-24T20:09:47.852Z,98684.34
2022-08-24T20:12:52.053Z,98688.38
2022-08-24T20:15:55.572Z,98685.63
2022-08-24T20:19:00.065Z,98680.91
2022-08-24T20:22:02.820Z,98683.28
2022-08-24T20:25:17.179Z,98684.94
2022-08-24T20:28:29.768Z,98685.00
2022-08-24T20:31:33.986Z,98685.75
2022-08-24T20:34:36.787Z,98684.53
2022-08-24T20:37:41.366Z,98687.38
2022-08-24T20:40:43.945Z,98686.63
2022-08-24T20:43:48.092Z,98687.09
2022-08-24T20:46:51.097Z,98685.09
2022-08-24T20:49:53.927Z,98685.13
2022-08-24T20:52:56.739Z,98686.75
2022-08-24T20:56:01.697Z,98686.75
2022-08-24T20:59:08.969Z,98677.97
2022-08-24T21:02:11.798Z,98682.78
2022-08-24T21:05:14.503Z,98681.97
2022-08-24T21:08:17.429Z,98674.84
2022-08-24T21:11:21.168Z,98682.00
2022-08-24T21:14:25.289Z,98684.81
2022-08-24T21:17:28.076Z,98692.81
2022-08-24T21:20:31.251Z,98683.69
2022-08-24T21:23:34.329Z,98677.28
2022-08-24T21:26:36.939Z,98685.66
2022-08-24T21:29:41.051Z,98685.28
2022-08-24T21:33:01.307Z,98688.88
2022-08-24T21:36:04.463Z,98680.13
2022-08-24T21:39:10.754Z,98684.09
2022-08-24T21:42:14.199Z,98684.09
2022-08-24T21:45:21.061Z,98691.28
2022-08-24T21:48:23.894Z,98694.84
2022-08-24T21:51:26.584Z,98683.69
2022-08-24T21:54:29.311Z,98686.88
2022-08-24T21:57:31.995Z,98686.88
2022-08-24T22:00:36.161Z,98679.72
2022-08-24T22:03:40.405Z,98685.69
2022-08-24T22:06:43.285Z,98682.91
2022-08-24T22:09:46.037Z,98681.31
2022-08-24T22:12:48.933Z,98681.69
2022-08-24T22:15:52.992Z,98687.66
2022-08-24T22:18:55.681Z,98680.09
2022-08-24T22:21:58.227Z,98670.94
2022-08-24T22:25:01.101Z,98675.72
2022-08-24T22:28:04.207Z,98676.50
2022-08-24T22:31:18.088Z,98669.34
2022-08-24T22:34:21.352Z,98668.56
2022-08-24T22:37:24.241Z,98678.91
2022-08-24T22:40:27.176Z,98675.31
2022-08-24T22:43:51.206Z,98680.03
2022-08-24T22:46:57.192Z,98672.84
2022-08-24T22:50:00.677Z,98671.66
2022-08-24T22:53:03.867Z,98677.19
2022-08-24T22:56:14.942Z,98668.81
2022-08-24T22:59:20.605Z,98667.63
2022-08-24T23:02:24.866Z,98660.44
2022-08-24T23:05:27.703Z,98668.75
2022-08-24T23:08:30.374Z,98663.53
2022-08-24T23:11:33.257Z,98663.50
2022-08-24T23:14:35.996Z,98663.50
2022-08-24T23:17:40.018Z,98650.06
2022-08-24T23:20:41.630Z,98653.22
2022-08-24T23:23:44.478Z,98660.00
2022-08-24T23:26:48.900Z,98651.63
2022-08-24T23:29:51.770Z,98653.13
2022-08-24T23:32:55.817Z,98649.13
2022-08-24T23:35:58.550Z,98653.03
2022-08-24T23:39:04.984Z,98658.59
2022-08-24T23:42:08.074Z,98657.34
2022-08-24T23:45:12.247Z,98656.59
2022-08-24T23:48:16.714Z,98646.66
2022-08-24T23:51:20.175Z,98640.38
2022-08-24T23:54:25.819Z,98638.75
2022-08-24T23:57:29.292Z,98640.75
